Current Weather

Joliet Rgnl

Joliet, Illinois (KJOT)

Report from: Friday, February 3, 2023 11:15 PM CST
Current time: Friday, February 3, 2023 11:58 PM CST

Nearby weather
Weather history
Weather forecast

Temperature-11.2°C (11.8°F)
Dew point-18.1°C (-0.6°F)
Winds Calm
Visibility10 mi. (16.1 km)
Clouds Ceiling: Overcast 4,400 ft. (1,341 m)
Altimeter30.49 in.Hg (1033 mB)
Relative humidity57 %
Density altitude-3,916 ft. (-1,194 m)
Remarks Fully automated report
Automated weather observing station with precipitation discriminator
Flight conditions Visual Meteorological Conditions
Raw dataKJOT 040515Z AUTO 00000KT 10SM OVC044 M11/M18 A3049 RMK AO2 T11121181
An unhandled exception has occurred. See browser dev tools for details. Reload 🗙